sensor_id;sensor_type;location;lat;lon;timestamp;temperature;humidity
9943;DHT22;5010;45.080;7.634;2023-03-21T00:00:13;20.70;1.00
9943;DHT22;5010;45.080;7.634;2023-03-21T00:02:42;20.70;1.00
9943;DHT22;5010;45.080;7.634;2023-03-21T00:05:09;20.70;1.00
9943;DHT22;5010;45.080;7.634;2023-03-21T00:07:35;20.70;1.00
9943;DHT22;5010;45.080;7.634;2023-03-21T00:10:03;20.70;1.00
9943;DHT22;5010;45.080;7.634;2023-03-21T00:12:30;20.70;1.00
9943;DHT22;5010;45.080;7.634;2023-03-21T00:14:57;20.70;1.00
9943;DHT22;5010;45.080;7.634;2023-03-21T00:17:29;20.60;1.00
9943;DHT22;5010;45.080;7.634;2023-03-21T00:19:58;20.60;1.00
9943;DHT22;5010;45.080;7.634;2023-03-21T00:22:25;20.60;1.00
9943;DHT22;5010;45.080;7.634;2023-03-21T00:24:52;20.60;1.00
9943;DHT22;5010;45.080;7.634;2023-03-21T00:27:19;20.60;1.00
9943;DHT22;5010;45.080;7.634;2023-03-21T00:29:46;20.60;1.00
9943;DHT22;5010;45.080;7.634;2023-03-21T00:32:14;20.60;1.00
9943;DHT22;5010;45.080;7.634;2023-03-21T00:34:41;20.60;1.00
9943;DHT22;5010;45.080;7.634;2023-03-21T00:37:10;20.60;1.00
9943;DHT22;5010;45.080;7.634;2023-03-21T00:39:39;20.60;1.00
9943;DHT22;5010;45.080;7.634;2023-03-21T00:42:06;20.60;1.00
9943;DHT22;5010;45.080;7.634;2023-03-21T00:44:33;20.60;1.00
9943;DHT22;5010;45.080;7.634;2023-03-21T00:47:01;20.50;1.00
9943;DHT22;5010;45.080;7.634;2023-03-21T00:49:28;20.50;1.00
9943;DHT22;5010;45.080;7.634;2023-03-21T00:51:58;20.50;1.00
9943;DHT22;5010;45.080;7.634;2023-03-21T00:54:26;20.50;1.00
9943;DHT22;5010;45.080;7.634;2023-03-21T00:56:53;20.50;1.00
9943;DHT22;5010;45.080;7.634;2023-03-21T00:59:20;20.50;1.00
9943;DHT22;5010;45.080;7.634;2023-03-21T01:01:47;20.50;1.00
9943;DHT22;5010;45.080;7.634;2023-03-21T01:04:14;20.50;1.00
9943;DHT22;5010;45.080;7.634;2023-03-21T01:06:42;20.50;1.00
9943;DHT22;5010;45.080;7.634;2023-03-21T01:09:12;20.50;1.00
9943;DHT22;5010;45.080;7.634;2023-03-21T01:11:42;20.50;1.00
9943;DHT22;5010;45.080;7.634;2023-03-21T01:14:10;20.50;1.00
9943;DHT22;5010;45.080;7.634;2023-03-21T01:16:37;20.50;1.00
9943;DHT22;5010;45.080;7.634;2023-03-21T01:19:05;20.50;1.00
9943;DHT22;5010;45.080;7.634;2023-03-21T01:21:33;20.50;1.00
9943;DHT22;5010;45.080;7.634;2023-03-21T01:24:00;20.50;1.00
9943;DHT22;5010;45.080;7.634;2023-03-21T01:26:28;20.50;1.00
9943;DHT22;5010;45.080;7.634;2023-03-21T01:28:56;20.50;1.00
9943;DHT22;5010;45.080;7.634;2023-03-21T01:31:23;20.50;1.00
9943;DHT22;5010;45.080;7.634;2023-03-21T01:33:50;20.50;1.00
9943;DHT22;5010;45.080;7.634;2023-03-21T01:36:18;20.40;1.00
9943;DHT22;5010;45.080;7.634;2023-03-21T01:38:46;20.50;1.00
9943;DHT22;5010;45.080;7.634;2023-03-21T01:41:19;20.40;1.00
9943;DHT22;5010;45.080;7.634;2023-03-21T01:43:47;20.40;1.00
9943;DHT22;5010;45.080;7.634;2023-03-21T01:46:35;20.50;1.00
9943;DHT22;5010;45.080;7.634;2023-03-21T01:49:08;20.40;1.00
9943;DHT22;5010;45.080;7.634;2023-03-21T01:51:39;20.40;1.00
9943;DHT22;5010;45.080;7.634;2023-03-21T01:54:11;20.40;1.00
9943;DHT22;5010;45.080;7.634;2023-03-21T01:56:42;20.40;1.00
9943;DHT22;5010;45.080;7.634;2023-03-21T01:59:15;20.40;1.00
9943;DHT22;5010;45.080;7.634;2023-03-21T02:01:48;20.40;1.00
9943;DHT22;5010;45.080;7.634;2023-03-21T02:04:16;20.40;1.00
9943;DHT22;5010;45.080;7.634;2023-03-21T02:06:50;20.40;1.00
9943;DHT22;5010;45.080;7.634;2023-03-21T02:09:23;20.40;1.00
9943;DHT22;5010;45.080;7.634;2023-03-21T02:11:53;20.40;1.00
9943;DHT22;5010;45.080;7.634;2023-03-21T02:14:20;20.40;1.00
9943;DHT22;5010;45.080;7.634;2023-03-21T02:16:53;20.40;1.00
9943;DHT22;5010;45.080;7.634;2023-03-21T02:23:02;20.40;1.00
9943;DHT22;5010;45.080;7.634;2023-03-21T02:25:53;20.30;1.00
9943;DHT22;5010;45.080;7.634;2023-03-21T02:28:26;20.30;1.00
9943;DHT22;5010;45.080;7.634;2023-03-21T02:31:09;20.30;1.00
9943;DHT22;5010;45.080;7.634;2023-03-21T02:36:59;20.30;1.00
9943;DHT22;5010;45.080;7.634;2023-03-21T02:39:36;20.30;1.00
9943;DHT22;5010;45.080;7.634;2023-03-21T02:42:11;20.30;1.00
9943;DHT22;5010;45.080;7.634;2023-03-21T02:44:44;20.30;1.00
9943;DHT22;5010;45.080;7.634;2023-03-21T02:47:15;20.30;1.00
9943;DHT22;5010;45.080;7.634;2023-03-21T02:49:48;20.30;1.00
9943;DHT22;5010;45.080;7.634;2023-03-21T02:52:20;20.30;1.00
9943;DHT22;5010;45.080;7.634;2023-03-21T02:54:48;20.30;1.00
9943;DHT22;5010;45.080;7.634;2023-03-21T02:57:17;20.30;1.00
9943;DHT22;5010;45.080;7.634;2023-03-21T02:59:46;20.30;1.00
9943;DHT22;5010;45.080;7.634;2023-03-21T03:02:15;20.30;1.00
9943;DHT22;5010;45.080;7.634;2023-03-21T03:04:43;20.30;1.00
9943;DHT22;5010;45.080;7.634;2023-03-21T03:07:24;20.30;1.00
9943;DHT22;5010;45.080;7.634;2023-03-21T03:10:10;20.30;1.00
9943;DHT22;5010;45.080;7.634;2023-03-21T03:12:46;20.30;1.00
9943;DHT22;5010;45.080;7.634;2023-03-21T03:15:20;20.30;1.00
9943;DHT22;5010;45.080;7.634;2023-03-21T03:17:55;20.30;1.00
9943;DHT22;5010;45.080;7.634;2023-03-21T03:20:32;20.30;1.00
9943;DHT22;5010;45.080;7.634;2023-03-21T03:23:12;20.20;1.00
9943;DHT22;5010;45.080;7.634;2023-03-21T03:25:45;20.20;1.00
9943;DHT22;5010;45.080;7.634;2023-03-21T03:28:18;20.20;1.00
9943;DHT22;5010;45.080;7.634;2023-03-21T03:30:47;20.20;1.00
9943;DHT22;5010;45.080;7.634;2023-03-21T03:33:15;20.30;1.00
9943;DHT22;5010;45.080;7.634;2023-03-21T03:35:49;20.20;1.00
9943;DHT22;5010;45.080;7.634;2023-03-21T03:38:19;20.20;1.00
9943;DHT22;5010;45.080;7.634;2023-03-21T03:40:49;20.20;1.00
9943;DHT22;5010;45.080;7.634;2023-03-21T03:43:22;20.20;1.00
9943;DHT22;5010;45.080;7.634;2023-03-21T03:45:55;20.20;1.00
9943;DHT22;5010;45.080;7.634;2023-03-21T03:48:25;20.20;1.00
9943;DHT22;5010;45.080;7.634;2023-03-21T03:50:54;20.20;1.00
9943;DHT22;5010;45.080;7.634;2023-03-21T03:53:29;20.20;1.00
9943;DHT22;5010;45.080;7.634;2023-03-21T03:55:58;20.20;1.00
9943;DHT22;5010;45.080;7.634;2023-03-21T03:58:26;20.20;1.00
9943;DHT22;5010;45.080;7.634;2023-03-21T04:00:56;20.20;1.00
9943;DHT22;5010;45.080;7.634;2023-03-21T04:03:23;20.20;1.00
9943;DHT22;5010;45.080;7.634;2023-03-21T04:05:50;20.20;1.00
9943;DHT22;5010;45.080;7.634;2023-03-21T04:08:18;20.20;1.00
9943;DHT22;5010;45.080;7.634;2023-03-21T04:10:49;20.20;1.00
9943;DHT22;5010;45.080;7.634;2023-03-21T04:13:15;20.20;1.00
9943;DHT22;5010;45.080;7.634;2023-03-21T04:15:43;20.20;1.00
9943;DHT22;5010;45.080;7.634;2023-03-21T04:18:10;20.20;1.00
9943;DHT22;5010;45.080;7.634;2023-03-21T04:20:37;20.20;1.00
9943;DHT22;5010;45.080;7.634;2023-03-21T04:23:04;20.20;1.00
9943;DHT22;5010;45.080;7.634;2023-03-21T04:25:32;20.20;1.00
9943;DHT22;5010;45.080;7.634;2023-03-21T04:28:01;20.20;1.00
9943;DHT22;5010;45.080;7.634;2023-03-21T04:30:28;20.20;1.00
9943;DHT22;5010;45.080;7.634;2023-03-21T04:32:58;20.20;1.00
9943;DHT22;5010;45.080;7.634;2023-03-21T04:35:26;20.20;1.00
9943;DHT22;5010;45.080;7.634;2023-03-21T04:37:53;20.20;1.00
9943;DHT22;5010;45.080;7.634;2023-03-21T04:40:20;20.20;1.00
9943;DHT22;5010;45.080;7.634;2023-03-21T04:42:49;20.20;1.00
9943;DHT22;5010;45.080;7.634;2023-03-21T04:45:17;20.20;1.00
9943;DHT22;5010;45.080;7.634;2023-03-21T04:47:44;20.20;1.00
9943;DHT22;5010;45.080;7.634;2023-03-21T04:50:11;20.20;1.00
9943;DHT22;5010;45.080;7.634;2023-03-21T04:52:38;20.20;1.00
9943;DHT22;5010;45.080;7.634;2023-03-21T04:55:06;20.10;1.00
9943;DHT22;5010;45.080;7.634;2023-03-21T04:57:34;20.20;1.00
9943;DHT22;5010;45.080;7.634;2023-03-21T05:00:04;20.20;1.00
9943;DHT22;5010;45.080;7.634;2023-03-21T05:02:36;20.20;1.00
9943;DHT22;5010;45.080;7.634;2023-03-21T05:05:04;20.10;1.00
9943;DHT22;5010;45.080;7.634;2023-03-21T05:07:31;20.20;1.00
9943;DHT22;5010;45.080;7.634;2023-03-21T05:09:58;20.20;1.00
9943;DHT22;5010;45.080;7.634;2023-03-21T05:12:25;20.10;1.00
9943;DHT22;5010;45.080;7.634;2023-03-21T05:14:52;20.10;1.00
9943;DHT22;5010;45.080;7.634;2023-03-21T05:17:19;20.10;1.00
9943;DHT22;5010;45.080;7.634;2023-03-21T05:19:51;20.10;1.00
9943;DHT22;5010;45.080;7.634;2023-03-21T05:22:18;20.10;1.00
9943;DHT22;5010;45.080;7.634;2023-03-21T05:24:45;20.10;1.00
9943;DHT22;5010;45.080;7.634;2023-03-21T05:27:15;20.10;1.00
9943;DHT22;5010;45.080;7.634;2023-03-21T05:29:59;20.10;1.00
9943;DHT22;5010;45.080;7.634;2023-03-21T05:32:26;20.10;1.00
9943;DHT22;5010;45.080;7.634;2023-03-21T05:34:54;20.10;1.00
9943;DHT22;5010;45.080;7.634;2023-03-21T05:37:21;20.10;1.00
9943;DHT22;5010;45.080;7.634;2023-03-21T05:39:48;20.10;1.00
9943;DHT22;5010;45.080;7.634;2023-03-21T05:42:15;20.10;1.00
9943;DHT22;5010;45.080;7.634;2023-03-21T05:44:43;20.10;1.00
9943;DHT22;5010;45.080;7.634;2023-03-21T05:47:10;20.10;1.00
9943;DHT22;5010;45.080;7.634;2023-03-21T05:49:37;20.10;1.00
9943;DHT22;5010;45.080;7.634;2023-03-21T05:52:06;20.10;1.00
9943;DHT22;5010;45.080;7.634;2023-03-21T05:54:32;20.10;1.00
9943;DHT22;5010;45.080;7.634;2023-03-21T05:56:59;20.10;1.00
9943;DHT22;5010;45.080;7.634;2023-03-21T05:59:26;20.10;1.00
9943;DHT22;5010;45.080;7.634;2023-03-21T06:01:53;20.10;1.00
9943;DHT22;5010;45.080;7.634;2023-03-21T06:04:20;20.10;1.00
9943;DHT22;5010;45.080;7.634;2023-03-21T06:06:47;20.10;1.00
9943;DHT22;5010;45.080;7.634;2023-03-21T06:09:16;20.10;1.00
9943;DHT22;5010;45.080;7.634;2023-03-21T06:11:47;20.10;1.00
9943;DHT22;5010;45.080;7.634;2023-03-21T06:14:14;20.10;1.00
9943;DHT22;5010;45.080;7.634;2023-03-21T06:16:41;20.10;1.00
9943;DHT22;5010;45.080;7.634;2023-03-21T06:19:08;20.10;1.00
9943;DHT22;5010;45.080;7.634;2023-03-21T06:21:35;20.10;1.00
9943;DHT22;5010;45.080;7.634;2023-03-21T06:24:02;20.10;1.00
9943;DHT22;5010;45.080;7.634;2023-03-21T06:26:30;20.10;1.00
9943;DHT22;5010;45.080;7.634;2023-03-21T06:28:57;20.10;1.00
9943;DHT22;5010;45.080;7.634;2023-03-21T06:31:24;20.10;1.00
9943;DHT22;5010;45.080;7.634;2023-03-21T06:33:51;20.10;1.00
9943;DHT22;5010;45.080;7.634;2023-03-21T06:36:19;20.10;1.00
9943;DHT22;5010;45.080;7.634;2023-03-21T06:38:45;20.10;1.00
9943;DHT22;5010;45.080;7.634;2023-03-21T06:41:13;20.10;1.00
9943;DHT22;5010;45.080;7.634;2023-03-21T06:43:42;20.10;1.00
9943;DHT22;5010;45.080;7.634;2023-03-21T06:46:09;20.10;1.00
9943;DHT22;5010;45.080;7.634;2023-03-21T06:48:36;20.10;1.00
9943;DHT22;5010;45.080;7.634;2023-03-21T06:51:09;20.10;1.00
9943;DHT22;5010;45.080;7.634;2023-03-21T06:53:36;20.10;1.00
9943;DHT22;5010;45.080;7.634;2023-03-21T06:56:03;20.10;1.00
9943;DHT22;5010;45.080;7.634;2023-03-21T06:58:30;20.10;1.00
9943;DHT22;5010;45.080;7.634;2023-03-21T07:00:59;20.10;1.00
9943;DHT22;5010;45.080;7.634;2023-03-21T07:03:26;20.10;1.00
9943;DHT22;5010;45.080;7.634;2023-03-21T07:05:53;20.10;1.00
9943;DHT22;5010;45.080;7.634;2023-03-21T07:08:20;20.10;1.00
9943;DHT22;5010;45.080;7.634;2023-03-21T07:10:47;20.10;1.00
9943;DHT22;5010;45.080;7.634;2023-03-21T07:13:15;20.10;1.00
9943;DHT22;5010;45.080;7.634;2023-03-21T07:15:42;20.20;1.00
9943;DHT22;5010;45.080;7.634;2023-03-21T07:18:10;20.10;1.00
9943;DHT22;5010;45.080;7.634;2023-03-21T07:20:37;20.10;1.00
9943;DHT22;5010;45.080;7.634;2023-03-21T07:23:05;20.10;1.00
9943;DHT22;5010;45.080;7.634;2023-03-21T07:25:32;20.10;1.00
9943;DHT22;5010;45.080;7.634;2023-03-21T07:28:00;20.10;1.00
9943;DHT22;5010;45.080;7.634;2023-03-21T07:30:27;20.10;1.00
9943;DHT22;5010;45.080;7.634;2023-03-21T07:32:54;20.10;1.00
9943;DHT22;5010;45.080;7.634;2023-03-21T07:35:22;20.10;1.00
9943;DHT22;5010;45.080;7.634;2023-03-21T07:37:49;20.10;1.00
9943;DHT22;5010;45.080;7.634;2023-03-21T07:40:16;20.10;1.00
9943;DHT22;5010;45.080;7.634;2023-03-21T07:42:43;20.10;1.00
9943;DHT22;5010;45.080;7.634;2023-03-21T07:45:11;20.10;1.00
9943;DHT22;5010;45.080;7.634;2023-03-21T07:47:39;20.10;1.00
9943;DHT22;5010;45.080;7.634;2023-03-21T07:50:07;20.10;1.00
9943;DHT22;5010;45.080;7.634;2023-03-21T07:52:36;20.10;1.00
9943;DHT22;5010;45.080;7.634;2023-03-21T07:55:04;20.10;1.00
9943;DHT22;5010;45.080;7.634;2023-03-21T07:57:31;20.10;1.00
9943;DHT22;5010;45.080;7.634;2023-03-21T07:59:58;20.10;1.00
9943;DHT22;5010;45.080;7.634;2023-03-21T08:02:25;20.10;1.00
9943;DHT22;5010;45.080;7.634;2023-03-21T08:04:52;20.10;1.00
9943;DHT22;5010;45.080;7.634;2023-03-21T08:07:18;20.10;1.00
9943;DHT22;5010;45.080;7.634;2023-03-21T08:09:47;20.10;1.00
9943;DHT22;5010;45.080;7.634;2023-03-21T08:12:14;20.10;1.00
9943;DHT22;5010;45.080;7.634;2023-03-21T08:14:41;20.10;1.00
9943;DHT22;5010;45.080;7.634;2023-03-21T08:17:08;20.10;1.00
9943;DHT22;5010;45.080;7.634;2023-03-21T08:19:36;20.10;1.00
9943;DHT22;5010;45.080;7.634;2023-03-21T08:22:03;20.10;1.00
9943;DHT22;5010;45.080;7.634;2023-03-21T08:24:31;20.10;1.00
9943;DHT22;5010;45.080;7.634;2023-03-21T08:27:00;20.10;1.00
9943;DHT22;5010;45.080;7.634;2023-03-21T08:29:27;20.10;1.00
9943;DHT22;5010;45.080;7.634;2023-03-21T08:31:54;20.10;1.00
9943;DHT22;5010;45.080;7.634;2023-03-21T08:34:20;20.10;1.00
9943;DHT22;5010;45.080;7.634;2023-03-21T08:36:48;20.20;1.00
9943;DHT22;5010;45.080;7.634;2023-03-21T08:39:15;20.10;1.00
9943;DHT22;5010;45.080;7.634;2023-03-21T08:41:42;20.20;1.00
9943;DHT22;5010;45.080;7.634;2023-03-21T08:44:10;20.10;1.00
9943;DHT22;5010;45.080;7.634;2023-03-21T08:46:37;20.20;1.00
9943;DHT22;5010;45.080;7.634;2023-03-21T08:49:04;20.20;1.00
9943;DHT22;5010;45.080;7.634;2023-03-21T08:51:31;20.20;1.00
9943;DHT22;5010;45.080;7.634;2023-03-21T08:53:58;20.20;1.00
9943;DHT22;5010;45.080;7.634;2023-03-21T08:56:25;20.20;1.00
9943;DHT22;5010;45.080;7.634;2023-03-21T08:58:52;20.10;1.00
9943;DHT22;5010;45.080;7.634;2023-03-21T09:01:20;20.20;1.00
9943;DHT22;5010;45.080;7.634;2023-03-21T09:03:47;20.20;1.00
9943;DHT22;5010;45.080;7.634;2023-03-21T09:06:14;20.20;1.00
9943;DHT22;5010;45.080;7.634;2023-03-21T09:08:41;20.20;1.00
9943;DHT22;5010;45.080;7.634;2023-03-21T09:11:10;20.20;1.00
9943;DHT22;5010;45.080;7.634;2023-03-21T09:13:37;20.20;1.00
9943;DHT22;5010;45.080;7.634;2023-03-21T09:16:05;20.20;1.00
9943;DHT22;5010;45.080;7.634;2023-03-21T09:18:33;20.20;1.00
9943;DHT22;5010;45.080;7.634;2023-03-21T09:21:14;20.20;1.00
9943;DHT22;5010;45.080;7.634;2023-03-21T09:23:43;20.20;1.00
9943;DHT22;5010;45.080;7.634;2023-03-21T09:26:10;20.20;1.00
9943;DHT22;5010;45.080;7.634;2023-03-21T09:28:38;20.20;1.00
9943;DHT22;5010;45.080;7.634;2023-03-21T09:31:06;20.20;1.00
9943;DHT22;5010;45.080;7.634;2023-03-21T09:33:37;20.20;1.00
9943;DHT22;5010;45.080;7.634;2023-03-21T09:36:06;20.20;1.00
9943;DHT22;5010;45.080;7.634;2023-03-21T09:38:38;20.20;1.00
9943;DHT22;5010;45.080;7.634;2023-03-21T09:41:18;20.20;1.00
9943;DHT22;5010;45.080;7.634;2023-03-21T09:43:54;20.20;1.00
9943;DHT22;5010;45.080;7.634;2023-03-21T09:46:34;20.20;1.00
9943;DHT22;5010;45.080;7.634;2023-03-21T09:49:05;20.20;1.00
9943;DHT22;5010;45.080;7.634;2023-03-21T09:51:39;20.30;1.00
9943;DHT22;5010;45.080;7.634;2023-03-21T09:54:11;20.30;1.00
9943;DHT22;5010;45.080;7.634;2023-03-21T09:56:40;20.30;1.00
9943;DHT22;5010;45.080;7.634;2023-03-21T09:59:17;20.30;1.00
9943;DHT22;5010;45.080;7.634;2023-03-21T10:01:47;20.30;1.00
9943;DHT22;5010;45.080;7.634;2023-03-21T10:04:16;20.30;1.00
9943;DHT22;5010;45.080;7.634;2023-03-21T10:06:49;20.30;1.00
9943;DHT22;5010;45.080;7.634;2023-03-21T10:09:21;20.30;1.00
9943;DHT22;5010;45.080;7.634;2023-03-21T10:11:51;20.30;1.00
9943;DHT22;5010;45.080;7.634;2023-03-21T10:14:24;20.30;1.00
9943;DHT22;5010;45.080;7.634;2023-03-21T10:16:57;20.30;1.00
9943;DHT22;5010;45.080;7.634;2023-03-21T10:19:27;20.30;1.00
9943;DHT22;5010;45.080;7.634;2023-03-21T10:21:54;20.30;1.00
9943;DHT22;5010;45.080;7.634;2023-03-21T10:24:23;20.30;1.00
9943;DHT22;5010;45.080;7.634;2023-03-21T10:26:50;20.30;1.00
9943;DHT22;5010;45.080;7.634;2023-03-21T10:29:21;20.30;1.00
9943;DHT22;5010;45.080;7.634;2023-03-21T10:31:50;20.30;1.00
9943;DHT22;5010;45.080;7.634;2023-03-21T10:34:31;20.30;1.00
9943;DHT22;5010;45.080;7.634;2023-03-21T10:37:01;20.30;1.00
9943;DHT22;5010;45.080;7.634;2023-03-21T10:39:32;20.30;1.00
9943;DHT22;5010;45.080;7.634;2023-03-21T10:42:00;20.30;1.00
9943;DHT22;5010;45.080;7.634;2023-03-21T10:44:33;20.40;1.00
9943;DHT22;5010;45.080;7.634;2023-03-21T10:47:04;20.40;1.00
9943;DHT22;5010;45.080;7.634;2023-03-21T10:49:34;20.40;1.00
9943;DHT22;5010;45.080;7.634;2023-03-21T10:52:04;20.40;1.00
9943;DHT22;5010;45.080;7.634;2023-03-21T10:54:33;20.40;1.00
9943;DHT22;5010;45.080;7.634;2023-03-21T10:57:05;20.40;1.00
9943;DHT22;5010;45.080;7.634;2023-03-21T10:59:37;20.40;1.00
9943;DHT22;5010;45.080;7.634;2023-03-21T11:02:06;20.40;1.00
9943;DHT22;5010;45.080;7.634;2023-03-21T11:04:38;20.40;1.00
9943;DHT22;5010;45.080;7.634;2023-03-21T11:07:05;20.40;1.00
9943;DHT22;5010;45.080;7.634;2023-03-21T11:09:45;20.50;1.00
9943;DHT22;5010;45.080;7.634;2023-03-21T11:12:13;20.50;1.00
9943;DHT22;5010;45.080;7.634;2023-03-21T11:14:42;20.50;1.00
9943;DHT22;5010;45.080;7.634;2023-03-21T11:17:24;20.50;1.00
9943;DHT22;5010;45.080;7.634;2023-03-21T11:19:57;20.50;1.00
9943;DHT22;5010;45.080;7.634;2023-03-21T11:22:26;20.50;1.00
9943;DHT22;5010;45.080;7.634;2023-03-21T11:24:58;20.50;1.00
9943;DHT22;5010;45.080;7.634;2023-03-21T11:27:26;20.50;1.00
9943;DHT22;5010;45.080;7.634;2023-03-21T11:29:55;20.50;1.00
9943;DHT22;5010;45.080;7.634;2023-03-21T11:32:25;20.60;1.00
9943;DHT22;5010;45.080;7.634;2023-03-21T11:34:56;20.50;1.00
9943;DHT22;5010;45.080;7.634;2023-03-21T11:37:27;20.60;1.00
9943;DHT22;5010;45.080;7.634;2023-03-21T11:39:56;20.60;1.00
9943;DHT22;5010;45.080;7.634;2023-03-21T11:42:32;20.60;1.00
9943;DHT22;5010;45.080;7.634;2023-03-21T11:45:13;20.60;1.00
9943;DHT22;5010;45.080;7.634;2023-03-21T11:47:40;20.60;1.00
9943;DHT22;5010;45.080;7.634;2023-03-21T11:50:25;20.60;1.00
9943;DHT22;5010;45.080;7.634;2023-03-21T11:53:10;20.60;1.00
9943;DHT22;5010;45.080;7.634;2023-03-21T11:55:46;20.60;1.00
9943;DHT22;5010;45.080;7.634;2023-03-21T11:58:32;20.60;1.00
9943;DHT22;5010;45.080;7.634;2023-03-21T12:01:07;20.60;1.00
9943;DHT22;5010;45.080;7.634;2023-03-21T12:03:54;20.60;1.00
9943;DHT22;5010;45.080;7.634;2023-03-21T12:06:30;20.60;1.00
9943;DHT22;5010;45.080;7.634;2023-03-21T12:09:12;20.60;1.00
9943;DHT22;5010;45.080;7.634;2023-03-21T12:11:51;20.60;1.00
9943;DHT22;5010;45.080;7.634;2023-03-21T12:14:29;20.60;1.00
9943;DHT22;5010;45.080;7.634;2023-03-21T12:17:07;20.60;1.00
9943;DHT22;5010;45.080;7.634;2023-03-21T12:19:47;20.60;1.00
9943;DHT22;5010;45.080;7.634;2023-03-21T12:22:26;20.70;1.00
9943;DHT22;5010;45.080;7.634;2023-03-21T12:24:55;20.70;1.00
9943;DHT22;5010;45.080;7.634;2023-03-21T12:27:30;20.70;1.00
9943;DHT22;5010;45.080;7.634;2023-03-21T12:30:12;20.70;1.00
9943;DHT22;5010;45.080;7.634;2023-03-21T12:32:51;20.80;1.00
9943;DHT22;5010;45.080;7.634;2023-03-21T12:35:34;20.70;1.00
9943;DHT22;5010;45.080;7.634;2023-03-21T12:38:14;20.80;1.00
9943;DHT22;5010;45.080;7.634;2023-03-21T12:40:53;20.80;1.00
9943;DHT22;5010;45.080;7.634;2023-03-21T12:43:28;20.80;1.00
9943;DHT22;5010;45.080;7.634;2023-03-21T12:45:58;20.90;1.00
9943;DHT22;5010;45.080;7.634;2023-03-21T12:48:35;20.90;1.00
9943;DHT22;5010;45.080;7.634;2023-03-21T12:51:08;20.90;1.00
9943;DHT22;5010;45.080;7.634;2023-03-21T12:53:47;20.90;1.00
9943;DHT22;5010;45.080;7.634;2023-03-21T12:56:20;20.90;1.00
9943;DHT22;5010;45.080;7.634;2023-03-21T12:58:51;21.00;1.00
9943;DHT22;5010;45.080;7.634;2023-03-21T13:01:21;21.00;1.00
9943;DHT22;5010;45.080;7.634;2023-03-21T13:03:53;21.00;1.00
9943;DHT22;5010;45.080;7.634;2023-03-21T13:06:24;21.00;1.00
9943;DHT22;5010;45.080;7.634;2023-03-21T13:08:59;21.10;1.00
9943;DHT22;5010;45.080;7.634;2023-03-21T13:11:29;21.10;1.00
9943;DHT22;5010;45.080;7.634;2023-03-21T13:14:00;21.10;1.00
9943;DHT22;5010;45.080;7.634;2023-03-21T13:16:32;21.20;1.00
9943;DHT22;5010;45.080;7.634;2023-03-21T13:19:13;21.20;1.00
9943;DHT22;5010;45.080;7.634;2023-03-21T13:21:49;21.20;1.00
9943;DHT22;5010;45.080;7.634;2023-03-21T13:24:24;21.20;1.00
9943;DHT22;5010;45.080;7.634;2023-03-21T13:26:57;21.30;1.00
9943;DHT22;5010;45.080;7.634;2023-03-21T13:29:28;21.30;1.00
9943;DHT22;5010;45.080;7.634;2023-03-21T13:32:06;21.30;1.00
9943;DHT22;5010;45.080;7.634;2023-03-21T13:34:34;21.30;1.00
9943;DHT22;5010;45.080;7.634;2023-03-21T13:37:03;21.30;1.00
9943;DHT22;5010;45.080;7.634;2023-03-21T13:39:32;21.30;1.00
9943;DHT22;5010;45.080;7.634;2023-03-21T13:42:04;21.30;1.00
9943;DHT22;5010;45.080;7.634;2023-03-21T13:44:38;21.30;1.00
9943;DHT22;5010;45.080;7.634;2023-03-21T13:47:22;21.30;1.00
9943;DHT22;5010;45.080;7.634;2023-03-21T13:50:20;21.30;1.00
9943;DHT22;5010;45.080;7.634;2023-03-21T13:53:09;21.30;1.00
9943;DHT22;5010;45.080;7.634;2023-03-21T13:55:40;21.30;1.00
9943;DHT22;5010;45.080;7.634;2023-03-21T13:58:22;21.30;1.00
9943;DHT22;5010;45.080;7.634;2023-03-21T14:01:18;21.30;1.00
9943;DHT22;5010;45.080;7.634;2023-03-21T14:03:46;21.30;1.00
9943;DHT22;5010;45.080;7.634;2023-03-21T14:06:15;21.30;1.00
9943;DHT22;5010;45.080;7.634;2023-03-21T14:08:45;21.30;1.00
9943;DHT22;5010;45.080;7.634;2023-03-21T14:11:16;21.30;1.00
9943;DHT22;5010;45.080;7.634;2023-03-21T14:13:44;21.30;1.00
9943;DHT22;5010;45.080;7.634;2023-03-21T14:16:13;21.30;1.00
9943;DHT22;5010;45.080;7.634;2023-03-21T14:18:43;21.30;1.00
9943;DHT22;5010;45.080;7.634;2023-03-21T14:21:15;21.30;1.00
9943;DHT22;5010;45.080;7.634;2023-03-21T14:23:43;21.30;1.00
9943;DHT22;5010;45.080;7.634;2023-03-21T14:26:10;21.30;1.00
9943;DHT22;5010;45.080;7.634;2023-03-21T14:28:44;21.30;1.00
9943;DHT22;5010;45.080;7.634;2023-03-21T14:31:14;21.30;1.00
9943;DHT22;5010;45.080;7.634;2023-03-21T14:33:45;21.30;1.00
9943;DHT22;5010;45.080;7.634;2023-03-21T14:36:16;21.30;1.00
9943;DHT22;5010;45.080;7.634;2023-03-21T14:38:53;21.30;1.00
9943;DHT22;5010;45.080;7.634;2023-03-21T14:41:23;21.20;1.00
9943;DHT22;5010;45.080;7.634;2023-03-21T14:44:13;21.20;1.00
9943;DHT22;5010;45.080;7.634;2023-03-21T14:46:40;21.30;1.00
9943;DHT22;5010;45.080;7.634;2023-03-21T14:49:12;21.20;1.00
9943;DHT22;5010;45.080;7.634;2023-03-21T14:51:41;21.20;1.00
9943;DHT22;5010;45.080;7.634;2023-03-21T14:54:13;21.20;1.00
9943;DHT22;5010;45.080;7.634;2023-03-21T14:56:44;21.20;1.00
9943;DHT22;5010;45.080;7.634;2023-03-21T14:59:16;21.20;1.00
9943;DHT22;5010;45.080;7.634;2023-03-21T15:01:45;21.20;1.00
9943;DHT22;5010;45.080;7.634;2023-03-21T15:04:14;21.20;1.00
9943;DHT22;5010;45.080;7.634;2023-03-21T15:06:49;21.20;1.00
9943;DHT22;5010;45.080;7.634;2023-03-21T15:09:17;21.20;1.00
9943;DHT22;5010;45.080;7.634;2023-03-21T15:11:48;21.20;1.00
9943;DHT22;5010;45.080;7.634;2023-03-21T15:14:20;21.20;1.00
9943;DHT22;5010;45.080;7.634;2023-03-21T15:16:48;21.20;1.00
9943;DHT22;5010;45.080;7.634;2023-03-21T15:19:17;21.20;1.00
9943;DHT22;5010;45.080;7.634;2023-03-21T15:21:48;21.20;1.00
9943;DHT22;5010;45.080;7.634;2023-03-21T15:24:19;21.20;1.00
9943;DHT22;5010;45.080;7.634;2023-03-21T15:26:49;21.10;1.00
9943;DHT22;5010;45.080;7.634;2023-03-21T15:29:17;21.10;1.00
9943;DHT22;5010;45.080;7.634;2023-03-21T15:31:46;21.10;1.00
9943;DHT22;5010;45.080;7.634;2023-03-21T15:34:21;21.10;1.00
9943;DHT22;5010;45.080;7.634;2023-03-21T15:36:53;21.10;1.00
9943;DHT22;5010;45.080;7.634;2023-03-21T15:39:21;21.10;1.00
9943;DHT22;5010;45.080;7.634;2023-03-21T15:41:57;21.10;1.00
9943;DHT22;5010;45.080;7.634;2023-03-21T15:44:27;21.10;1.00
9943;DHT22;5010;45.080;7.634;2023-03-21T15:46:54;21.10;1.00
9943;DHT22;5010;45.080;7.634;2023-03-21T15:49:25;21.10;1.00
9943;DHT22;5010;45.080;7.634;2023-03-21T15:51:56;21.00;1.00
9943;DHT22;5010;45.080;7.634;2023-03-21T15:54:25;21.00;1.00
9943;DHT22;5010;45.080;7.634;2023-03-21T15:56:55;21.00;1.00
9943;DHT22;5010;45.080;7.634;2023-03-21T15:59:26;21.00;1.00
9943;DHT22;5010;45.080;7.634;2023-03-21T16:01:53;21.00;1.00
9943;DHT22;5010;45.080;7.634;2023-03-21T16:04:20;21.00;1.00
9943;DHT22;5010;45.080;7.634;2023-03-21T16:06:56;21.00;1.00
9943;DHT22;5010;45.080;7.634;2023-03-21T16:09:24;21.00;1.00
9943;DHT22;5010;45.080;7.634;2023-03-21T16:11:52;21.00;1.00
9943;DHT22;5010;45.080;7.634;2023-03-21T16:14:20;21.00;1.00
9943;DHT22;5010;45.080;7.634;2023-03-21T16:16:49;20.90;1.00
9943;DHT22;5010;45.080;7.634;2023-03-21T16:19:17;21.00;1.00
9943;DHT22;5010;45.080;7.634;2023-03-21T16:21:44;21.00;1.00
9943;DHT22;5010;45.080;7.634;2023-03-21T16:24:11;20.90;1.00
9943;DHT22;5010;45.080;7.634;2023-03-21T16:26:41;20.90;1.00
9943;DHT22;5010;45.080;7.634;2023-03-21T16:29:12;20.90;1.00
9943;DHT22;5010;45.080;7.634;2023-03-21T16:31:39;20.90;1.00
9943;DHT22;5010;45.080;7.634;2023-03-21T16:34:08;20.90;1.00
9943;DHT22;5010;45.080;7.634;2023-03-21T16:36:37;20.90;1.00
9943;DHT22;5010;45.080;7.634;2023-03-21T16:39:16;20.90;1.00
9943;DHT22;5010;45.080;7.634;2023-03-21T16:41:44;20.90;1.00
9943;DHT22;5010;45.080;7.634;2023-03-21T16:44:11;20.90;1.00